sensor_id;sensor_type;location;lat;lon;timestamp;P1;durP1;ratioP1;P2;durP2;ratioP2
12296;SDS011;6211;49.124;9.152;2023-06-22T00:01:13;5.60;;;4.07;;
12296;SDS011;6211;49.124;9.152;2023-06-22T00:03:40;6.05;;;3.58;;
12296;SDS011;6211;49.124;9.152;2023-06-22T00:06:07;6.40;;;3.83;;
12296;SDS011;6211;49.124;9.152;2023-06-22T00:08:34;4.75;;;4.13;;
12296;SDS011;6211;49.124;9.152;2023-06-22T00:11:01;5.85;;;4.10;;
12296;SDS011;6211;49.124;9.152;2023-06-22T00:13:28;5.57;;;4.30;;
12296;SDS011;6211;49.124;9.152;2023-06-22T00:15:57;4.57;;;3.80;;
12296;SDS011;6211;49.124;9.152;2023-06-22T00:18:24;6.43;;;4.65;;
12296;SDS011;6211;49.124;9.152;2023-06-22T00:20:53;4.70;;;3.80;;
12296;SDS011;6211;49.124;9.152;2023-06-22T00:23:22;5.18;;;3.90;;
12296;SDS011;6211;49.124;9.152;2023-06-22T00:25:50;5.60;;;4.00;;
12296;SDS011;6211;49.124;9.152;2023-06-22T00:28:17;6.20;;;4.18;;
12296;SDS011;6211;49.124;9.152;2023-06-22T00:30:44;9.13;;;4.40;;
12296;SDS011;6211;49.124;9.152;2023-06-22T00:33:13;8.63;;;4.43;;
12296;SDS011;6211;49.124;9.152;2023-06-22T00:35:41;4.95;;;4.40;;
12296;SDS011;6211;49.124;9.152;2023-06-22T00:38:08;6.95;;;4.97;;
12296;SDS011;6211;49.124;9.152;2023-06-22T00:40:35;9.95;;;4.38;;
12296;SDS011;6211;49.124;9.152;2023-06-22T00:43:02;7.78;;;3.90;;
12296;SDS011;6211;49.124;9.152;2023-06-22T00:45:30;6.60;;;4.65;;
12296;SDS011;6211;49.124;9.152;2023-06-22T00:47:57;7.35;;;4.10;;
12296;SDS011;6211;49.124;9.152;2023-06-22T00:50:26;4.97;;;3.97;;
12296;SDS011;6211;49.124;9.152;2023-06-22T00:52:58;6.45;;;4.25;;
12296;SDS011;6211;49.124;9.152;2023-06-22T00:55:26;5.57;;;4.00;;
12296;SDS011;6211;49.124;9.152;2023-06-22T00:57:53;4.75;;;4.00;;
12296;SDS011;6211;49.124;9.152;2023-06-22T01:00:21;8.23;;;4.22;;
12296;SDS011;6211;49.124;9.152;2023-06-22T01:02:49;7.85;;;3.85;;
12296;SDS011;6211;49.124;9.152;2023-06-22T01:05:17;6.93;;;4.45;;
12296;SDS011;6211;49.124;9.152;2023-06-22T01:07:48;9.93;;;4.43;;
12296;SDS011;6211;49.124;9.152;2023-06-22T01:10:21;6.05;;;4.45;;
12296;SDS011;6211;49.124;9.152;2023-06-22T01:12:52;5.88;;;4.03;;
12296;SDS011;6211;49.124;9.152;2023-06-22T01:15:21;7.55;;;4.55;;
12296;SDS011;6211;49.124;9.152;2023-06-22T01:17:50;6.88;;;4.32;;
12296;SDS011;6211;49.124;9.152;2023-06-22T01:20:19;6.35;;;3.67;;
12296;SDS011;6211;49.124;9.152;2023-06-22T01:22:52;7.00;;;5.10;;
12296;SDS011;6211;49.124;9.152;2023-06-22T01:25:26;8.10;;;5.05;;
12296;SDS011;6211;49.124;9.152;2023-06-22T01:27:56;8.75;;;5.18;;
12296;SDS011;6211;49.124;9.152;2023-06-22T01:30:27;10.82;;;4.88;;
12296;SDS011;6211;49.124;9.152;2023-06-22T01:32:59;7.32;;;4.90;;
12296;SDS011;6211;49.124;9.152;2023-06-22T01:35:27;5.70;;;4.55;;
12296;SDS011;6211;49.124;9.152;2023-06-22T01:37:55;8.77;;;4.15;;
12296;SDS011;6211;49.124;9.152;2023-06-22T01:40:22;8.63;;;4.10;;
12296;SDS011;6211;49.124;9.152;2023-06-22T01:42:50;5.22;;;3.80;;
12296;SDS011;6211;49.124;9.152;2023-06-22T01:45:18;7.13;;;3.97;;
12296;SDS011;6211;49.124;9.152;2023-06-22T01:47:46;8.82;;;4.63;;
12296;SDS011;6211;49.124;9.152;2023-06-22T01:50:15;5.22;;;4.22;;
12296;SDS011;6211;49.124;9.152;2023-06-22T01:52:42;7.78;;;4.40;;
12296;SDS011;6211;49.124;9.152;2023-06-22T01:55:10;6.95;;;3.97;;
12296;SDS011;6211;49.124;9.152;2023-06-22T01:57:37;9.70;;;4.28;;
12296;SDS011;6211;49.124;9.152;2023-06-22T02:00:07;7.63;;;4.32;;
12296;SDS011;6211;49.124;9.152;2023-06-22T02:02:36;7.20;;;4.45;;
12296;SDS011;6211;49.124;9.152;2023-06-22T02:05:08;8.23;;;4.70;;
12296;SDS011;6211;49.124;9.152;2023-06-22T02:07:37;6.50;;;4.90;;
12296;SDS011;6211;49.124;9.152;2023-06-22T02:10:06;5.20;;;3.90;;
12296;SDS011;6211;49.124;9.152;2023-06-22T02:12:34;7.22;;;4.20;;
12296;SDS011;6211;49.124;9.152;2023-06-22T02:15:03;5.18;;;4.32;;
12296;SDS011;6211;49.124;9.152;2023-06-22T02:17:30;6.90;;;4.57;;
12296;SDS011;6211;49.124;9.152;2023-06-22T02:19:58;6.60;;;4.15;;
12296;SDS011;6211;49.124;9.152;2023-06-22T02:22:27;6.38;;;4.65;;
12296;SDS011;6211;49.124;9.152;2023-06-22T02:24:54;8.65;;;4.75;;
12296;SDS011;6211;49.124;9.152;2023-06-22T02:27:21;6.60;;;4.00;;
12296;SDS011;6211;49.124;9.152;2023-06-22T02:29:48;7.72;;;4.88;;
12296;SDS011;6211;49.124;9.152;2023-06-22T02:32:15;7.45;;;4.47;;
12296;SDS011;6211;49.124;9.152;2023-06-22T02:34:43;7.07;;;3.95;;
12296;SDS011;6211;49.124;9.152;2023-06-22T02:37:12;7.55;;;4.22;;
12296;SDS011;6211;49.124;9.152;2023-06-22T02:39:41;8.77;;;3.92;;
12296;SDS011;6211;49.124;9.152;2023-06-22T02:42:09;5.28;;;4.10;;
12296;SDS011;6211;49.124;9.152;2023-06-22T02:44:36;6.32;;;3.90;;
12296;SDS011;6211;49.124;9.152;2023-06-22T02:47:03;6.15;;;4.18;;
12296;SDS011;6211;49.124;9.152;2023-06-22T02:49:31;5.20;;;4.40;;
12296;SDS011;6211;49.124;9.152;2023-06-22T02:51:58;6.68;;;4.65;;
12296;SDS011;6211;49.124;9.152;2023-06-22T02:54:25;6.60;;;4.15;;
12296;SDS011;6211;49.124;9.152;2023-06-22T02:56:53;8.77;;;4.25;;
12296;SDS011;6211;49.124;9.152;2023-06-22T02:59:20;6.65;;;4.60;;
12296;SDS011;6211;49.124;9.152;2023-06-22T03:01:48;8.60;;;4.47;;
12296;SDS011;6211;49.124;9.152;2023-06-22T03:04:16;6.05;;;4.78;;
12296;SDS011;6211;49.124;9.152;2023-06-22T03:06:43;7.72;;;4.38;;
12296;SDS011;6211;49.124;9.152;2023-06-22T03:09:16;8.68;;;5.00;;
12296;SDS011;6211;49.124;9.152;2023-06-22T03:11:43;7.47;;;4.72;;
12296;SDS011;6211;49.124;9.152;2023-06-22T03:14:12;7.53;;;4.20;;
12296;SDS011;6211;49.124;9.152;2023-06-22T03:16:39;6.57;;;4.65;;
12296;SDS011;6211;49.124;9.152;2023-06-22T03:19:06;6.72;;;4.63;;
12296;SDS011;6211;49.124;9.152;2023-06-22T03:21:33;6.70;;;4.53;;
12296;SDS011;6211;49.124;9.152;2023-06-22T03:24:03;7.50;;;4.78;;
12296;SDS011;6211;49.124;9.152;2023-06-22T03:26:31;5.88;;;4.78;;
12296;SDS011;6211;49.124;9.152;2023-06-22T03:28:58;7.07;;;4.68;;
12296;SDS011;6211;49.124;9.152;2023-06-22T03:31:26;9.10;;;4.97;;
12296;SDS011;6211;49.124;9.152;2023-06-22T03:33:53;10.48;;;5.03;;
12296;SDS011;6211;49.124;9.152;2023-06-22T03:36:21;8.20;;;5.03;;
12296;SDS011;6211;49.124;9.152;2023-06-22T03:38:48;9.27;;;5.07;;
12296;SDS011;6211;49.124;9.152;2023-06-22T03:41:16;7.65;;;5.22;;
12296;SDS011;6211;49.124;9.152;2023-06-22T03:43:43;7.40;;;4.78;;
12296;SDS011;6211;49.124;9.152;2023-06-22T03:46:10;10.23;;;4.65;;
12296;SDS011;6211;49.124;9.152;2023-06-22T03:48:38;6.70;;;5.03;;
12296;SDS011;6211;49.124;9.152;2023-06-22T03:51:06;5.85;;;4.22;;
12296;SDS011;6211;49.124;9.152;2023-06-22T03:53:33;6.93;;;5.10;;
12296;SDS011;6211;49.124;9.152;2023-06-22T03:56:00;8.60;;;4.57;;
12296;SDS011;6211;49.124;9.152;2023-06-22T03:58:27;7.22;;;5.15;;
12296;SDS011;6211;49.124;9.152;2023-06-22T04:00:58;8.95;;;4.80;;
12296;SDS011;6211;49.124;9.152;2023-06-22T04:03:26;6.35;;;5.07;;
12296;SDS011;6211;49.124;9.152;2023-06-22T04:05:54;7.25;;;5.03;;
12296;SDS011;6211;49.124;9.152;2023-06-22T04:08:21;7.15;;;4.90;;
12296;SDS011;6211;49.124;9.152;2023-06-22T04:10:48;5.90;;;5.00;;
12296;SDS011;6211;49.124;9.152;2023-06-22T04:13:16;8.45;;;5.05;;
12296;SDS011;6211;49.124;9.152;2023-06-22T04:15:43;8.55;;;5.07;;
12296;SDS011;6211;49.124;9.152;2023-06-22T04:18:10;7.45;;;4.68;;
12296;SDS011;6211;49.124;9.152;2023-06-22T04:20:38;8.32;;;4.60;;
12296;SDS011;6211;49.124;9.152;2023-06-22T04:23:06;8.20;;;4.78;;
12296;SDS011;6211;49.124;9.152;2023-06-22T04:25:33;9.50;;;4.82;;
12296;SDS011;6211;49.124;9.152;2023-06-22T04:28:01;10.65;;;5.22;;
12296;SDS011;6211;49.124;9.152;2023-06-22T04:30:29;8.63;;;4.15;;
12296;SDS011;6211;49.124;9.152;2023-06-22T04:32:57;8.20;;;5.10;;
12296;SDS011;6211;49.124;9.152;2023-06-22T04:35:25;9.75;;;4.95;;
12296;SDS011;6211;49.124;9.152;2023-06-22T04:37:53;13.40;;;5.32;;
12296;SDS011;6211;49.124;9.152;2023-06-22T04:40:22;9.70;;;5.05;;
12296;SDS011;6211;49.124;9.152;2023-06-22T04:42:50;11.95;;;5.82;;
12296;SDS011;6211;49.124;9.152;2023-06-22T04:45:20;6.97;;;5.00;;
12296;SDS011;6211;49.124;9.152;2023-06-22T04:47:47;9.27;;;5.18;;
12296;SDS011;6211;49.124;9.152;2023-06-22T04:50:14;8.60;;;5.35;;
12296;SDS011;6211;49.124;9.152;2023-06-22T04:52:42;5.93;;;4.72;;
12296;SDS011;6211;49.124;9.152;2023-06-22T04:55:10;8.55;;;5.68;;
12296;SDS011;6211;49.124;9.152;2023-06-22T04:57:38;13.30;;;5.30;;
12296;SDS011;6211;49.124;9.152;2023-06-22T05:00:06;6.57;;;4.85;;
12296;SDS011;6211;49.124;9.152;2023-06-22T05:02:37;10.85;;;5.15;;
12296;SDS011;6211;49.124;9.152;2023-06-22T05:05:05;5.70;;;4.97;;
12296;SDS011;6211;49.124;9.152;2023-06-22T05:07:32;12.85;;;5.68;;
12296;SDS011;6211;49.124;9.152;2023-06-22T05:10:13;9.00;;;4.88;;
12296;SDS011;6211;49.124;9.152;2023-06-22T05:12:45;9.95;;;5.07;;
12296;SDS011;6211;49.124;9.152;2023-06-22T05:15:12;8.45;;;5.38;;
12296;SDS011;6211;49.124;9.152;2023-06-22T05:17:40;9.38;;;5.10;;
12296;SDS011;6211;49.124;9.152;2023-06-22T05:20:08;10.00;;;5.45;;
12296;SDS011;6211;49.124;9.152;2023-06-22T05:22:36;10.13;;;5.40;;
12296;SDS011;6211;49.124;9.152;2023-06-22T05:25:04;9.40;;;5.07;;
12296;SDS011;6211;49.124;9.152;2023-06-22T05:27:31;6.97;;;5.25;;
12296;SDS011;6211;49.124;9.152;2023-06-22T05:30:00;6.88;;;5.20;;
12296;SDS011;6211;49.124;9.152;2023-06-22T05:32:27;7.07;;;4.97;;
12296;SDS011;6211;49.124;9.152;2023-06-22T05:34:54;7.53;;;5.40;;
12296;SDS011;6211;49.124;9.152;2023-06-22T05:37:21;7.80;;;5.10;;
12296;SDS011;6211;49.124;9.152;2023-06-22T05:39:48;8.07;;;5.97;;
12296;SDS011;6211;49.124;9.152;2023-06-22T05:42:15;7.78;;;5.28;;
12296;SDS011;6211;49.124;9.152;2023-06-22T05:44:43;6.97;;;5.30;;
12296;SDS011;6211;49.124;9.152;2023-06-22T05:47:11;8.10;;;5.15;;
12296;SDS011;6211;49.124;9.152;2023-06-22T05:49:38;7.20;;;5.10;;
12296;SDS011;6211;49.124;9.152;2023-06-22T05:52:05;6.70;;;5.07;;
12296;SDS011;6211;49.124;9.152;2023-06-22T05:54:33;8.10;;;5.32;;
12296;SDS011;6211;49.124;9.152;2023-06-22T05:57:00;7.82;;;4.57;;
12296;SDS011;6211;49.124;9.152;2023-06-22T05:59:27;6.57;;;5.35;;
12296;SDS011;6211;49.124;9.152;2023-06-22T06:01:55;9.35;;;5.63;;
12296;SDS011;6211;49.124;9.152;2023-06-22T06:04:23;9.13;;;5.10;;
12296;SDS011;6211;49.124;9.152;2023-06-22T06:06:50;8.55;;;5.22;;
12296;SDS011;6211;49.124;9.152;2023-06-22T06:09:17;8.23;;;5.10;;
12296;SDS011;6211;49.124;9.152;2023-06-22T06:11:44;8.52;;;5.55;;
12296;SDS011;6211;49.124;9.152;2023-06-22T06:14:11;6.88;;;4.80;;
12296;SDS011;6211;49.124;9.152;2023-06-22T06:16:39;6.32;;;4.60;;
12296;SDS011;6211;49.124;9.152;2023-06-22T06:19:06;6.38;;;5.28;;
12296;SDS011;6211;49.124;9.152;2023-06-22T06:21:35;6.85;;;5.07;;
12296;SDS011;6211;49.124;9.152;2023-06-22T06:24:02;6.07;;;4.55;;
12296;SDS011;6211;49.124;9.152;2023-06-22T06:26:29;8.77;;;5.45;;
12296;SDS011;6211;49.124;9.152;2023-06-22T06:28:59;6.18;;;4.57;;
12296;SDS011;6211;49.124;9.152;2023-06-22T06:31:27;7.30;;;4.40;;
12296;SDS011;6211;49.124;9.152;2023-06-22T06:33:55;6.60;;;4.20;;
12296;SDS011;6211;49.124;9.152;2023-06-22T06:36:22;5.80;;;4.57;;
12296;SDS011;6211;49.124;9.152;2023-06-22T06:38:51;5.25;;;4.05;;
12296;SDS011;6211;49.124;9.152;2023-06-22T06:41:18;5.88;;;4.35;;
12296;SDS011;6211;49.124;9.152;2023-06-22T06:43:46;7.28;;;4.80;;
12296;SDS011;6211;49.124;9.152;2023-06-22T06:46:13;6.22;;;3.85;;
12296;SDS011;6211;49.124;9.152;2023-06-22T06:48:40;5.00;;;3.88;;
12296;SDS011;6211;49.124;9.152;2023-06-22T06:51:07;7.38;;;4.32;;
12296;SDS011;6211;49.124;9.152;2023-06-22T06:53:35;5.75;;;3.95;;
12296;SDS011;6211;49.124;9.152;2023-06-22T06:56:04;7.03;;;4.28;;
12296;SDS011;6211;49.124;9.152;2023-06-22T06:58:31;6.10;;;3.78;;
12296;SDS011;6211;49.124;9.152;2023-06-22T07:00:58;4.90;;;4.30;;
12296;SDS011;6211;49.124;9.152;2023-06-22T07:03:26;7.68;;;4.28;;
12296;SDS011;6211;49.124;9.152;2023-06-22T07:05:53;6.57;;;3.90;;
12296;SDS011;6211;49.124;9.152;2023-06-22T07:08:20;5.00;;;4.07;;
12296;SDS011;6211;49.124;9.152;2023-06-22T07:10:47;5.03;;;4.00;;
12296;SDS011;6211;49.124;9.152;2023-06-22T07:13:16;5.72;;;4.32;;
12296;SDS011;6211;49.124;9.152;2023-06-22T07:15:46;7.13;;;4.43;;
12296;SDS011;6211;49.124;9.152;2023-06-22T07:18:13;5.10;;;3.28;;
12296;SDS011;6211;49.124;9.152;2023-06-22T07:20:40;3.72;;;2.85;;
12296;SDS011;6211;49.124;9.152;2023-06-22T07:23:07;4.53;;;3.15;;
12296;SDS011;6211;49.124;9.152;2023-06-22T07:25:34;3.65;;;2.92;;
12296;SDS011;6211;49.124;9.152;2023-06-22T07:28:02;3.33;;;2.67;;
12296;SDS011;6211;49.124;9.152;2023-06-22T07:30:32;3.55;;;2.90;;
12296;SDS011;6211;49.124;9.152;2023-06-22T07:32:59;4.10;;;2.72;;
12296;SDS011;6211;49.124;9.152;2023-06-22T07:35:29;3.67;;;2.60;;
12296;SDS011;6211;49.124;9.152;2023-06-22T07:37:56;4.30;;;2.85;;
12296;SDS011;6211;49.124;9.152;2023-06-22T07:40:23;4.68;;;2.80;;
12296;SDS011;6211;49.124;9.152;2023-06-22T07:42:50;3.85;;;2.90;;
12296;SDS011;6211;49.124;9.152;2023-06-22T07:45:18;4.72;;;2.65;;
12296;SDS011;6211;49.124;9.152;2023-06-22T07:47:47;6.90;;;2.88;;
12296;SDS011;6211;49.124;9.152;2023-06-22T07:50:14;3.00;;;2.70;;
12296;SDS011;6211;49.124;9.152;2023-06-22T07:52:41;2.60;;;2.22;;
12296;SDS011;6211;49.124;9.152;2023-06-22T07:55:08;4.82;;;3.10;;
12296;SDS011;6211;49.124;9.152;2023-06-22T07:57:35;4.20;;;2.60;;
12296;SDS011;6211;49.124;9.152;2023-06-22T08:00:03;3.58;;;2.33;;
12296;SDS011;6211;49.124;9.152;2023-06-22T08:02:36;2.95;;;2.63;;
12296;SDS011;6211;49.124;9.152;2023-06-22T08:05:05;4.32;;;2.83;;
12296;SDS011;6211;49.124;9.152;2023-06-22T08:07:33;3.78;;;2.83;;
12296;SDS011;6211;49.124;9.152;2023-06-22T08:10:00;3.22;;;2.60;;
12296;SDS011;6211;49.124;9.152;2023-06-22T08:12:28;3.90;;;3.00;;
12296;SDS011;6211;49.124;9.152;2023-06-22T08:14:55;3.45;;;2.80;;
12296;SDS011;6211;49.124;9.152;2023-06-22T08:17:22;4.43;;;2.88;;
12296;SDS011;6211;49.124;9.152;2023-06-22T08:19:49;7.55;;;3.22;;
12296;SDS011;6211;49.124;9.152;2023-06-22T08:22:18;3.22;;;2.65;;
12296;SDS011;6211;49.124;9.152;2023-06-22T08:24:45;3.53;;;2.40;;
12296;SDS011;6211;49.124;9.152;2023-06-22T08:27:12;3.67;;;2.80;;
12296;SDS011;6211;49.124;9.152;2023-06-22T08:29:41;5.93;;;2.83;;
12296;SDS011;6211;49.124;9.152;2023-06-22T08:32:10;4.75;;;3.15;;
12296;SDS011;6211;49.124;9.152;2023-06-22T08:34:37;2.95;;;2.58;;
12296;SDS011;6211;49.124;9.152;2023-06-22T08:37:07;4.25;;;2.63;;
12296;SDS011;6211;49.124;9.152;2023-06-22T08:39:35;2.75;;;2.17;;
12296;SDS011;6211;49.124;9.152;2023-06-22T08:42:03;2.78;;;2.50;;
12296;SDS011;6211;49.124;9.152;2023-06-22T08:44:31;2.78;;;2.58;;
12296;SDS011;6211;49.124;9.152;2023-06-22T08:46:58;3.60;;;2.50;;
12296;SDS011;6211;49.124;9.152;2023-06-22T08:49:25;4.63;;;3.20;;
12296;SDS011;6211;49.124;9.152;2023-06-22T08:51:52;4.03;;;2.58;;
12296;SDS011;6211;49.124;9.152;2023-06-22T08:54:21;3.10;;;2.78;;
12296;SDS011;6211;49.124;9.152;2023-06-22T08:56:49;3.28;;;2.53;;
12296;SDS011;6211;49.124;9.152;2023-06-22T08:59:17;3.05;;;2.35;;
12296;SDS011;6211;49.124;9.152;2023-06-22T09:01:44;2.33;;;2.13;;
12296;SDS011;6211;49.124;9.152;2023-06-22T09:04:13;4.55;;;4.15;;
12296;SDS011;6211;49.124;9.152;2023-06-22T09:06:40;2.92;;;2.40;;
12296;SDS011;6211;49.124;9.152;2023-06-22T09:09:10;3.40;;;2.53;;
12296;SDS011;6211;49.124;9.152;2023-06-22T09:11:37;5.90;;;2.67;;
12296;SDS011;6211;49.124;9.152;2023-06-22T09:14:05;5.43;;;2.70;;
12296;SDS011;6211;49.124;9.152;2023-06-22T09:16:33;4.50;;;2.88;;
12296;SDS011;6211;49.124;9.152;2023-06-22T09:19:00;3.40;;;2.50;;
12296;SDS011;6211;49.124;9.152;2023-06-22T09:21:27;3.58;;;2.55;;
12296;SDS011;6211;49.124;9.152;2023-06-22T09:23:55;4.05;;;2.40;;
12296;SDS011;6211;49.124;9.152;2023-06-22T09:26:22;2.67;;;2.38;;
12296;SDS011;6211;49.124;9.152;2023-06-22T09:28:49;5.00;;;2.80;;
12296;SDS011;6211;49.124;9.152;2023-06-22T09:31:18;4.18;;;2.60;;
12296;SDS011;6211;49.124;9.152;2023-06-22T09:33:50;8.40;;;2.58;;
12296;SDS011;6211;49.124;9.152;2023-06-22T09:36:17;4.03;;;2.63;;
12296;SDS011;6211;49.124;9.152;2023-06-22T09:38:44;3.55;;;2.80;;
12296;SDS011;6211;49.124;9.152;2023-06-22T09:41:11;3.55;;;2.65;;
12296;SDS011;6211;49.124;9.152;2023-06-22T09:43:38;3.50;;;2.53;;
12296;SDS011;6211;49.124;9.152;2023-06-22T09:46:06;3.90;;;2.58;;
12296;SDS011;6211;49.124;9.152;2023-06-22T09:48:35;5.13;;;2.67;;
12296;SDS011;6211;49.124;9.152;2023-06-22T09:51:02;5.50;;;2.85;;
12296;SDS011;6211;49.124;9.152;2023-06-22T09:53:30;3.15;;;2.58;;
12296;SDS011;6211;49.124;9.152;2023-06-22T09:55:57;3.22;;;2.60;;
12296;SDS011;6211;49.124;9.152;2023-06-22T09:58:24;3.28;;;2.80;;
12296;SDS011;6211;49.124;9.152;2023-06-22T10:00:51;3.22;;;2.78;;
12296;SDS011;6211;49.124;9.152;2023-06-22T10:03:19;3.28;;;2.60;;
12296;SDS011;6211;49.124;9.152;2023-06-22T10:05:47;4.80;;;2.55;;
12296;SDS011;6211;49.124;9.152;2023-06-22T10:08:15;3.78;;;3.08;;
12296;SDS011;6211;49.124;9.152;2023-06-22T10:10:42;2.88;;;2.50;;
12296;SDS011;6211;49.124;9.152;2023-06-22T10:13:09;3.45;;;2.33;;
12296;SDS011;6211;49.124;9.152;2023-06-22T10:15:37;3.65;;;2.60;;
12296;SDS011;6211;49.124;9.152;2023-06-22T10:18:04;7.18;;;2.97;;
12296;SDS011;6211;49.124;9.152;2023-06-22T10:20:31;8.00;;;2.72;;
12296;SDS011;6211;49.124;9.152;2023-06-22T10:23:00;3.38;;;2.25;;
12296;SDS011;6211;49.124;9.152;2023-06-22T10:25:27;3.25;;;2.63;;
12296;SDS011;6211;49.124;9.152;2023-06-22T10:27:54;3.58;;;2.75;;
12296;SDS011;6211;49.124;9.152;2023-06-22T10:30:22;3.13;;;2.67;;
12296;SDS011;6211;49.124;9.152;2023-06-22T10:32:49;5.13;;;3.00;;
12296;SDS011;6211;49.124;9.152;2023-06-22T10:35:16;4.60;;;2.70;;
12296;SDS011;6211;49.124;9.152;2023-06-22T10:37:44;3.97;;;2.60;;
12296;SDS011;6211;49.124;9.152;2023-06-22T10:40:13;4.20;;;2.83;;
12296;SDS011;6211;49.124;9.152;2023-06-22T10:42:41;5.00;;;2.75;;
12296;SDS011;6211;49.124;9.152;2023-06-22T10:45:08;5.20;;;2.72;;
12296;SDS011;6211;49.124;9.152;2023-06-22T10:47:36;2.85;;;2.42;;
12296;SDS011;6211;49.124;9.152;2023-06-22T10:50:04;7.80;;;2.80;;
12296;SDS011;6211;49.124;9.152;2023-06-22T10:52:31;3.38;;;2.40;;
12296;SDS011;6211;49.124;9.152;2023-06-22T10:54:58;6.75;;;2.45;;
12296;SDS011;6211;49.124;9.152;2023-06-22T10:57:26;4.85;;;2.50;;
12296;SDS011;6211;49.124;9.152;2023-06-22T10:59:53;2.53;;;2.25;;
12296;SDS011;6211;49.124;9.152;2023-06-22T11:02:21;3.58;;;2.78;;
12296;SDS011;6211;49.124;9.152;2023-06-22T11:04:48;3.25;;;2.72;;
12296;SDS011;6211;49.124;9.152;2023-06-22T11:07:15;4.03;;;2.50;;
12296;SDS011;6211;49.124;9.152;2023-06-22T11:09:42;5.43;;;2.80;;
12296;SDS011;6211;49.124;9.152;2023-06-22T11:12:09;3.72;;;2.63;;
12296;SDS011;6211;49.124;9.152;2023-06-22T11:14:38;5.00;;;2.70;;
12296;SDS011;6211;49.124;9.152;2023-06-22T11:17:05;4.57;;;2.60;;
12296;SDS011;6211;49.124;9.152;2023-06-22T11:19:32;5.57;;;2.90;;
12296;SDS011;6211;49.124;9.152;2023-06-22T11:21:59;3.40;;;2.95;;
12296;SDS011;6211;49.124;9.152;2023-06-22T11:24:26;5.72;;;2.83;;
12296;SDS011;6211;49.124;9.152;2023-06-22T11:26:54;4.32;;;2.97;;
12296;SDS011;6211;49.124;9.152;2023-06-22T11:29:21;4.93;;;2.83;;
12296;SDS011;6211;49.124;9.152;2023-06-22T11:31:49;4.65;;;2.92;;
12296;SDS011;6211;49.124;9.152;2023-06-22T11:34:16;3.60;;;2.75;;
12296;SDS011;6211;49.124;9.152;2023-06-22T11:36:44;3.13;;;2.72;;
12296;SDS011;6211;49.124;9.152;2023-06-22T11:39:13;3.22;;;2.63;;
12296;SDS011;6211;49.124;9.152;2023-06-22T11:41:40;4.35;;;3.00;;
12296;SDS011;6211;49.124;9.152;2023-06-22T11:44:07;5.20;;;2.60;;
12296;SDS011;6211;49.124;9.152;2023-06-22T11:46:34;4.13;;;3.13;;
12296;SDS011;6211;49.124;9.152;2023-06-22T11:49:03;4.35;;;2.78;;
12296;SDS011;6211;49.124;9.152;2023-06-22T11:51:30;5.28;;;2.70;;
12296;SDS011;6211;49.124;9.152;2023-06-22T11:53:57;3.55;;;2.35;;
12296;SDS011;6211;49.124;9.152;2023-06-22T11:56:24;4.10;;;2.50;;
12296;SDS011;6211;49.124;9.152;2023-06-22T11:58:52;4.53;;;2.90;;
12296;SDS011;6211;49.124;9.152;2023-06-22T12:01:20;4.63;;;2.70;;
12296;SDS011;6211;49.124;9.152;2023-06-22T12:03:47;3.85;;;2.63;;
12296;SDS011;6211;49.124;9.152;2023-06-22T12:06:15;4.05;;;2.78;;
12296;SDS011;6211;49.124;9.152;2023-06-22T12:08:42;3.95;;;3.08;;
12296;SDS011;6211;49.124;9.152;2023-06-22T12:11:09;6.25;;;2.85;;
12296;SDS011;6211;49.124;9.152;2023-06-22T12:13:37;5.13;;;2.60;;
12296;SDS011;6211;49.124;9.152;2023-06-22T12:16:04;3.92;;;2.72;;
12296;SDS011;6211;49.124;9.152;2023-06-22T12:18:32;3.75;;;2.70;;
12296;SDS011;6211;49.124;9.152;2023-06-22T12:20:59;4.95;;;3.20;;
12296;SDS011;6211;49.124;9.152;2023-06-22T12:23:27;4.38;;;2.90;;
12296;SDS011;6211;49.124;9.152;2023-06-22T12:25:54;6.07;;;3.05;;
12296;SDS011;6211;49.124;9.152;2023-06-22T12:28:22;5.85;;;3.10;;
12296;SDS011;6211;49.124;9.152;2023-06-22T12:30:49;4.68;;;2.97;;
12296;SDS011;6211;49.124;9.152;2023-06-22T12:33:16;5.32;;;3.22;;
12296;SDS011;6211;49.124;9.152;2023-06-22T12:35:43;6.63;;;3.00;;
12296;SDS011;6211;49.124;9.152;2023-06-22T12:38:11;6.50;;;3.05;;
12296;SDS011;6211;49.124;9.152;2023-06-22T12:40:39;4.38;;;2.70;;
12296;SDS011;6211;49.124;9.152;2023-06-22T12:43:06;5.95;;;3.38;;
12296;SDS011;6211;49.124;9.152;2023-06-22T12:45:33;4.15;;;3.10;;
12296;SDS011;6211;49.124;9.152;2023-06-22T12:48:00;5.22;;;2.88;;
12296;SDS011;6211;49.124;9.152;2023-06-22T12:50:28;6.45;;;2.65;;
12296;SDS011;6211;49.124;9.152;2023-06-22T12:52:55;3.33;;;2.63;;
12296;SDS011;6211;49.124;9.152;2023-06-22T12:55:23;4.15;;;3.13;;
12296;SDS011;6211;49.124;9.152;2023-06-22T12:57:51;4.85;;;2.97;;
12296;SDS011;6211;49.124;9.152;2023-06-22T13:00:18;4.05;;;2.83;;
12296;SDS011;6211;49.124;9.152;2023-06-22T13:02:46;4.05;;;2.83;;
12296;SDS011;6211;49.124;9.152;2023-06-22T13:05:13;3.60;;;2.50;;
12296;SDS011;6211;49.124;9.152;2023-06-22T13:07:40;3.78;;;3.05;;
12296;SDS011;6211;49.124;9.152;2023-06-22T13:10:08;5.75;;;3.17;;
12296;SDS011;6211;49.124;9.152;2023-06-22T13:12:35;6.15;;;2.70;;
12296;SDS011;6211;49.124;9.152;2023-06-22T13:15:04;3.90;;;2.80;;
12296;SDS011;6211;49.124;9.152;2023-06-22T13:17:31;3.42;;;2.90;;
12296;SDS011;6211;49.124;9.152;2023-06-22T13:19:58;3.95;;;2.97;;
12296;SDS011;6211;49.124;9.152;2023-06-22T13:22:29;5.10;;;3.30;;
12296;SDS011;6211;49.124;9.152;2023-06-22T13:24:56;3.83;;;2.97;;
12296;SDS011;6211;49.124;9.152;2023-06-22T13:27:24;3.03;;;2.38;;
12296;SDS011;6211;49.124;9.152;2023-06-22T13:29:51;3.38;;;2.53;;
12296;SDS011;6211;49.124;9.152;2023-06-22T13:32:19;4.20;;;2.42;;
12296;SDS011;6211;49.124;9.152;2023-06-22T13:34:46;3.40;;;2.35;;
12296;SDS011;6211;49.124;9.152;2023-06-22T13:37:14;3.53;;;2.70;;
12296;SDS011;6211;49.124;9.152;2023-06-22T13:39:41;3.42;;;2.90;;
12296;SDS011;6211;49.124;9.152;2023-06-22T13:42:08;3.25;;;2.95;;
12296;SDS011;6211;49.124;9.152;2023-06-22T13:44:35;4.75;;;2.90;;
12296;SDS011;6211;49.124;9.152;2023-06-22T13:47:02;5.15;;;2.85;;
12296;SDS011;6211;49.124;9.152;2023-06-22T13:49:31;4.70;;;3.00;;
12296;SDS011;6211;49.124;9.152;2023-06-22T13:51:59;3.83;;;3.10;;
12296;SDS011;6211;49.124;9.152;2023-06-22T13:54:26;4.43;;;2.85;;
12296;SDS011;6211;49.124;9.152;2023-06-22T13:56:53;3.30;;;2.67;;
12296;SDS011;6211;49.124;9.152;2023-06-22T13:59:20;3.95;;;2.95;;
12296;SDS011;6211;49.124;9.152;2023-06-22T14:01:47;5.32;;;3.10;;
12296;SDS011;6211;49.124;9.152;2023-06-22T14:04:15;2.80;;;2.50;;
12296;SDS011;6211;49.124;9.152;2023-06-22T14:06:43;3.58;;;3.00;;
12296;SDS011;6211;49.124;9.152;2023-06-22T14:09:10;5.15;;;3.40;;
12296;SDS011;6211;49.124;9.152;2023-06-22T14:11:37;5.63;;;3.00;;
12296;SDS011;6211;49.124;9.152;2023-06-22T14:14:04;3.63;;;2.67;;
12296;SDS011;6211;49.124;9.152;2023-06-22T14:16:32;4.50;;;2.78;;
12296;SDS011;6211;49.124;9.152;2023-06-22T14:18:59;6.38;;;2.63;;
12296;SDS011;6211;49.124;9.152;2023-06-22T14:21:26;3.63;;;3.03;;
12296;SDS011;6211;49.124;9.152;2023-06-22T14:23:54;3.03;;;2.72;;
12296;SDS011;6211;49.124;9.152;2023-06-22T14:26:21;3.45;;;2.67;;
12296;SDS011;6211;49.124;9.152;2023-06-22T14:28:49;3.53;;;2.70;;
12296;SDS011;6211;49.124;9.152;2023-06-22T14:31:16;6.97;;;4.10;;
12296;SDS011;6211;49.124;9.152;2023-06-22T14:33:44;4.50;;;2.70;;
12296;SDS011;6211;49.124;9.152;2023-06-22T14:36:12;3.22;;;2.50;;
12296;SDS011;6211;49.124;9.152;2023-06-22T14:38:39;4.50;;;2.78;;
12296;SDS011;6211;49.124;9.152;2023-06-22T14:41:08;4.50;;;2.70;;
12296;SDS011;6211;49.124;9.152;2023-06-22T14:43:35;5.97;;;2.88;;
12296;SDS011;6211;49.124;9.152;2023-06-22T14:46:02;3.45;;;3.00;;
12296;SDS011;6211;49.124;9.152;2023-06-22T14:48:29;3.83;;;2.60;;
12296;SDS011;6211;49.124;9.152;2023-06-22T14:50:56;7.63;;;3.60;;
12296;SDS011;6211;49.124;9.152;2023-06-22T14:53:25;7.60;;;3.13;;
12296;SDS011;6211;49.124;9.152;2023-06-22T14:55:52;5.22;;;3.13;;
12296;SDS011;6211;49.124;9.152;2023-06-22T14:58:21;3.80;;;2.72;;
12296;SDS011;6211;49.124;9.152;2023-06-22T15:00:48;5.93;;;2.42;;
12296;SDS011;6211;49.124;9.152;2023-06-22T15:03:15;3.25;;;2.50;;